map of OGL home
OGL - Airport
Location
City:  Ogle, Demerara-Mahaica, Guyana
Near (Alt.):Georgetown
Name:Eugene F. Correira International Airport
Old (Alt.):Ogle International Airport
ICAO:SYEC
IATA:OGL

Details
Type:Airport (Aerodrome, Airfield)
Use:Public/Civil, International (customs port of entry)
Latitude:648'21"N (6.805912)
Longitude:5806'27"W (-58.107604)
Elevation:7 ft (2 m)
Variation:16.48W (WMM2015 magnetic declination)
-0.05 annual change
Runways:1
Longest:4201 × 100 ft (1280 × 30.5 m), paved

Time
Time Zone:UTC-4
Local Time:

Weather
METAR:SYEC 132300Z 06010KT 9999 SCT023 28/24 Q1011 NOSIG
TAF:SYEC 141008Z 1412/1512 08014KT 9999 SCT020
BECMG 1500/1503 06006KT 2000 TS +SHRA FEW013CB BKN014 OVC034

Related Locations
Nearby:
Farthest:KSR: 12337 mi / 19854 km
Selayar Islands [H. Aroeppala Airport], SN, ID

Find:

   beyond  
but within

Other Information
Maps:
NOTAMs:
Links:
Sources:

  
  • flag of Guyana
  

Sectional Chart

Flight Planning
at skyvector.com

Satellite Image

Google Maps Satellite view

 

Copyright © 2004-2018 Karl L. Swartz. All rights reserved.
The Great Circle Mapper name and logo are trademarks of the Great Circle Mapper.
All other trademarks mentioned herein belong to their respective owners.
Please see credits for attibutions and further copyright information.

  Follow gcmap on Facebook Follow gcmap on Twitter Follow gcmap on Google+ GCmap on LinkedIn

hCard Microformat

Geo Microformat